sensor_id;sensor_type;location;lat;lon;timestamp;temperature;humidity
75471;HTU21D;64051;46.320;48.028;2022-10-16T00:01:26;9.10;62.39
75471;HTU21D;64051;46.320;48.028;2022-10-16T00:03:52;9.06;62.50
75471;HTU21D;64051;46.320;48.028;2022-10-16T00:06:20;9.00;62.64
75471;HTU21D;64051;46.320;48.028;2022-10-16T00:08:47;8.95;62.68
75471;HTU21D;64051;46.320;48.028;2022-10-16T00:11:24;8.92;62.81
75471;HTU21D;64051;46.320;48.028;2022-10-16T00:13:54;8.87;62.89
75471;HTU21D;64051;46.320;48.028;2022-10-16T00:16:20;8.80;62.95
75471;HTU21D;64051;46.320;48.028;2022-10-16T00:18:46;8.74;63.11
75471;HTU21D;64051;46.320;48.028;2022-10-16T00:21:18;8.72;63.27
75471;HTU21D;64051;46.320;48.028;2022-10-16T00:23:44;8.64;63.44
75471;HTU21D;64051;46.320;48.028;2022-10-16T00:26:13;8.61;63.50
75471;HTU21D;64051;46.320;48.028;2022-10-16T00:28:39;8.58;63.56
75471;HTU21D;64051;46.320;48.028;2022-10-16T00:31:07;8.53;63.72
75471;HTU21D;64051;46.320;48.028;2022-10-16T00:33:34;8.50;63.63
75471;HTU21D;64051;46.320;48.028;2022-10-16T00:36:02;8.45;63.89
75471;HTU21D;64051;46.320;48.028;2022-10-16T00:38:29;8.38;64.10
75471;HTU21D;64051;46.320;48.028;2022-10-16T00:40:55;8.36;64.09
75471;HTU21D;64051;46.320;48.028;2022-10-16T00:43:45;8.35;64.37
75471;HTU21D;64051;46.320;48.028;2022-10-16T00:46:19;8.29;64.59
75471;HTU21D;64051;46.320;48.028;2022-10-16T00:48:50;8.27;64.46
75471;HTU21D;64051;46.320;48.028;2022-10-16T00:51:20;8.20;64.51
75471;HTU21D;64051;46.320;48.028;2022-10-16T00:53:48;8.15;64.63
75471;HTU21D;64051;46.320;48.028;2022-10-16T00:56:14;8.12;64.70
75471;HTU21D;64051;46.320;48.028;2022-10-16T00:58:40;8.07;64.72
75471;HTU21D;64051;46.320;48.028;2022-10-16T01:01:06;8.03;64.89
75471;HTU21D;64051;46.320;48.028;2022-10-16T01:03:36;7.98;65.02
75471;HTU21D;64051;46.320;48.028;2022-10-16T01:17:11;7.63;66.36
75471;HTU21D;64051;46.320;48.028;2022-10-16T01:19:55;7.58;65.88
75471;HTU21D;64051;46.320;48.028;2022-10-16T01:23:25;7.50;66.08
75471;HTU21D;64051;46.320;48.028;2022-10-16T01:28:34;7.40;66.40
75471;HTU21D;64051;46.320;48.028;2022-10-16T01:31:02;7.38;66.39
75471;HTU21D;64051;46.320;48.028;2022-10-16T01:34:18;7.35;66.60
75471;HTU21D;64051;46.320;48.028;2022-10-16T01:36:31;7.30;66.65
75471;HTU21D;64051;46.320;48.028;2022-10-16T01:39:01;7.29;66.82
75471;HTU21D;64051;46.320;48.028;2022-10-16T01:41:34;7.27;66.85
75471;HTU21D;64051;46.320;48.028;2022-10-16T01:44:06;7.24;66.98
75471;HTU21D;64051;46.320;48.028;2022-10-16T01:46:36;7.23;67.01
75471;HTU21D;64051;46.320;48.028;2022-10-16T01:49:04;7.22;67.01
75471;HTU21D;64051;46.320;48.028;2022-10-16T01:51:32;7.18;66.98
75471;HTU21D;64051;46.320;48.028;2022-10-16T01:54:00;7.13;67.31
75471;HTU21D;64051;46.320;48.028;2022-10-16T01:56:28;7.08;67.30
75471;HTU21D;64051;46.320;48.028;2022-10-16T01:59:05;7.07;67.43
75471;HTU21D;64051;46.320;48.028;2022-10-16T02:01:35;7.04;67.58
75471;HTU21D;64051;46.320;48.028;2022-10-16T02:04:07;6.99;67.66
75471;HTU21D;64051;46.320;48.028;2022-10-16T02:06:34;6.98;67.67
75471;HTU21D;64051;46.320;48.028;2022-10-16T02:09:01;6.98;67.87
75471;HTU21D;64051;46.320;48.028;2022-10-16T02:11:34;6.97;67.89
75471;HTU21D;64051;46.320;48.028;2022-10-16T02:14:05;6.97;68.07
75471;HTU21D;64051;46.320;48.028;2022-10-16T02:16:44;6.93;68.00
75471;HTU21D;64051;46.320;48.028;2022-10-16T02:19:15;6.91;67.84
75471;HTU21D;64051;46.320;48.028;2022-10-16T02:22:00;6.86;68.19
75471;HTU21D;64051;46.320;48.028;2022-10-16T02:24:43;6.83;68.01
75471;HTU21D;64051;46.320;48.028;2022-10-16T02:30:16;6.74;68.19
75471;HTU21D;64051;46.320;48.028;2022-10-16T02:32:47;6.70;68.46
75471;HTU21D;64051;46.320;48.028;2022-10-16T02:35:17;6.65;68.52
75471;HTU21D;64051;46.320;48.028;2022-10-16T02:37:44;6.63;68.52
75471;HTU21D;64051;46.320;48.028;2022-10-16T02:40:12;6.61;68.98
75471;HTU21D;64051;46.320;48.028;2022-10-16T02:42:39;6.61;68.78
75471;HTU21D;64051;46.320;48.028;2022-10-16T02:45:07;6.59;68.54
75471;HTU21D;64051;46.320;48.028;2022-10-16T02:47:33;6.55;68.55
75471;HTU21D;64051;46.320;48.028;2022-10-16T02:49:59;6.51;68.76
75471;HTU21D;64051;46.320;48.028;2022-10-16T02:52:25;6.44;68.65
75471;HTU21D;64051;46.320;48.028;2022-10-16T02:54:51;6.39;68.72
75471;HTU21D;64051;46.320;48.028;2022-10-16T02:57:17;6.34;68.92
75471;HTU21D;64051;46.320;48.028;2022-10-16T02:59:44;6.27;69.02
75471;HTU21D;64051;46.320;48.028;2022-10-16T03:02:11;6.22;68.99
75471;HTU21D;64051;46.320;48.028;2022-10-16T03:04:37;6.17;69.06
75471;HTU21D;64051;46.320;48.028;2022-10-16T03:07:03;6.12;69.29
75471;HTU21D;64051;46.320;48.028;2022-10-16T03:09:29;6.08;69.29
75471;HTU21D;64051;46.320;48.028;2022-10-16T03:11:55;6.05;69.42
75471;HTU21D;64051;46.320;48.028;2022-10-16T03:14:21;6.04;69.49
75471;HTU21D;64051;46.320;48.028;2022-10-16T03:16:47;6.00;69.61
75471;HTU21D;64051;46.320;48.028;2022-10-16T03:19:13;5.99;69.68
75471;HTU21D;64051;46.320;48.028;2022-10-16T03:21:39;5.98;69.69
75471;HTU21D;64051;46.320;48.028;2022-10-16T03:24:05;5.97;69.62
75471;HTU21D;64051;46.320;48.028;2022-10-16T03:26:31;5.96;69.65
75471;HTU21D;64051;46.320;48.028;2022-10-16T03:28:57;5.94;69.90
75471;HTU21D;64051;46.320;48.028;2022-10-16T03:31:23;5.94;70.24
75471;HTU21D;64051;46.320;48.028;2022-10-16T03:33:49;5.95;70.15
75471;HTU21D;64051;46.320;48.028;2022-10-16T03:36:15;5.96;70.35
75471;HTU21D;64051;46.320;48.028;2022-10-16T03:38:41;5.96;70.10
75471;HTU21D;64051;46.320;48.028;2022-10-16T03:41:07;5.97;70.50
75471;HTU21D;64051;46.320;48.028;2022-10-16T03:43:33;6.00;70.35
75471;HTU21D;64051;46.320;48.028;2022-10-16T03:45:59;6.02;70.12
75471;HTU21D;64051;46.320;48.028;2022-10-16T03:48:25;6.04;70.03
75471;HTU21D;64051;46.320;48.028;2022-10-16T03:50:51;6.06;70.19
75471;HTU21D;64051;46.320;48.028;2022-10-16T03:53:17;6.07;70.20
75471;HTU21D;64051;46.320;48.028;2022-10-16T03:55:43;6.10;70.38
75471;HTU21D;64051;46.320;48.028;2022-10-16T03:58:10;6.12;70.26
75471;HTU21D;64051;46.320;48.028;2022-10-16T04:00:40;6.12;70.38
75471;HTU21D;64051;46.320;48.028;2022-10-16T04:03:06;6.15;70.59
75471;HTU21D;64051;46.320;48.028;2022-10-16T04:05:32;6.17;70.52
75471;HTU21D;64051;46.320;48.028;2022-10-16T04:07:58;6.19;70.55
75471;HTU21D;64051;46.320;48.028;2022-10-16T04:10:24;6.21;70.68
75471;HTU21D;64051;46.320;48.028;2022-10-16T04:12:49;6.24;70.90
75471;HTU21D;64051;46.320;48.028;2022-10-16T04:15:15;6.29;70.76
75471;HTU21D;64051;46.320;48.028;2022-10-16T04:17:41;6.34;70.84
75471;HTU21D;64051;46.320;48.028;2022-10-16T04:20:07;6.39;70.84
75471;HTU21D;64051;46.320;48.028;2022-10-16T04:22:36;6.46;70.71
75471;HTU21D;64051;46.320;48.028;2022-10-16T04:25:02;6.53;70.70
75471;HTU21D;64051;46.320;48.028;2022-10-16T04:27:28;6.59;70.64
75471;HTU21D;64051;46.320;48.028;2022-10-16T04:29:57;6.65;70.57
75471;HTU21D;64051;46.320;48.028;2022-10-16T04:32:23;6.70;70.55
75471;HTU21D;64051;46.320;48.028;2022-10-16T04:34:49;6.73;70.61
75471;HTU21D;64051;46.320;48.028;2022-10-16T04:37:15;6.79;70.61
75471;HTU21D;64051;46.320;48.028;2022-10-16T04:39:44;6.83;70.60
75471;HTU21D;64051;46.320;48.028;2022-10-16T04:42:12;6.91;70.55
75471;HTU21D;64051;46.320;48.028;2022-10-16T04:44:38;6.99;70.58
75471;HTU21D;64051;46.320;48.028;2022-10-16T04:47:04;7.05;70.50
75471;HTU21D;64051;46.320;48.028;2022-10-16T04:49:30;7.13;70.56
75471;HTU21D;64051;46.320;48.028;2022-10-16T04:51:57;7.20;70.45
75471;HTU21D;64051;46.320;48.028;2022-10-16T04:54:22;7.30;70.47
75471;HTU21D;64051;46.320;48.028;2022-10-16T04:56:57;7.41;70.33
75471;HTU21D;64051;46.320;48.028;2022-10-16T04:59:32;7.53;70.37
75471;HTU21D;64051;46.320;48.028;2022-10-16T05:01:58;7.63;70.16
75471;HTU21D;64051;46.320;48.028;2022-10-16T05:04:24;7.73;70.03
75471;HTU21D;64051;46.320;48.028;2022-10-16T05:06:53;7.83;70.10
75471;HTU21D;64051;46.320;48.028;2022-10-16T05:09:19;7.94;69.93
75471;HTU21D;64051;46.320;48.028;2022-10-16T05:11:45;8.04;69.90
75471;HTU21D;64051;46.320;48.028;2022-10-16T05:14:11;8.13;69.79
75471;HTU21D;64051;46.320;48.028;2022-10-16T05:16:37;8.26;69.71
75471;HTU21D;64051;46.320;48.028;2022-10-16T05:19:03;8.36;69.59
75471;HTU21D;64051;46.320;48.028;2022-10-16T05:21:29;8.46;69.35
75471;HTU21D;64051;46.320;48.028;2022-10-16T05:24:01;8.55;69.23
75471;HTU21D;64051;46.320;48.028;2022-10-16T05:26:27;8.60;69.14
75471;HTU21D;64051;46.320;48.028;2022-10-16T05:28:55;8.67;69.14
75471;HTU21D;64051;46.320;48.028;2022-10-16T05:31:30;8.78;69.10
75471;HTU21D;64051;46.320;48.028;2022-10-16T05:33:59;8.91;69.00
75471;HTU21D;64051;46.320;48.028;2022-10-16T05:36:28;9.02;68.78
75471;HTU21D;64051;46.320;48.028;2022-10-16T05:38:57;9.14;68.58
75471;HTU21D;64051;46.320;48.028;2022-10-16T05:41:22;9.22;68.39
75471;HTU21D;64051;46.320;48.028;2022-10-16T05:43:54;9.32;68.33
75471;HTU21D;64051;46.320;48.028;2022-10-16T05:46:20;9.41;68.23
75471;HTU21D;64051;46.320;48.028;2022-10-16T05:48:46;9.55;68.17
75471;HTU21D;64051;46.320;48.028;2022-10-16T05:51:13;9.67;68.13
75471;HTU21D;64051;46.320;48.028;2022-10-16T05:53:43;9.84;67.98
75471;HTU21D;64051;46.320;48.028;2022-10-16T05:56:10;9.99;67.66
75471;HTU21D;64051;46.320;48.028;2022-10-16T05:58:38;10.12;67.49
75471;HTU21D;64051;46.320;48.028;2022-10-16T06:01:16;10.24;67.03
75471;HTU21D;64051;46.320;48.028;2022-10-16T06:03:47;10.36;66.91
75471;HTU21D;64051;46.320;48.028;2022-10-16T06:06:15;10.45;66.84
75471;HTU21D;64051;46.320;48.028;2022-10-16T06:08:45;10.57;66.56
75471;HTU21D;64051;46.320;48.028;2022-10-16T06:11:16;10.67;66.19
75471;HTU21D;64051;46.320;48.028;2022-10-16T06:13:42;10.75;65.97
75471;HTU21D;64051;46.320;48.028;2022-10-16T06:16:09;10.84;65.87
75471;HTU21D;64051;46.320;48.028;2022-10-16T06:18:36;10.93;65.32
75471;HTU21D;64051;46.320;48.028;2022-10-16T06:21:17;11.00;64.82
75471;HTU21D;64051;46.320;48.028;2022-10-16T06:23:44;11.08;64.96
75471;HTU21D;64051;46.320;48.028;2022-10-16T06:26:14;11.16;64.82
75471;HTU21D;64051;46.320;48.028;2022-10-16T06:28:41;11.27;64.35
75471;HTU21D;64051;46.320;48.028;2022-10-16T06:31:11;11.32;63.95
75471;HTU21D;64051;46.320;48.028;2022-10-16T06:33:40;11.40;63.78
75471;HTU21D;64051;46.320;48.028;2022-10-16T06:36:08;11.51;63.73
75471;HTU21D;64051;46.320;48.028;2022-10-16T06:38:35;11.68;63.63
75471;HTU21D;64051;46.320;48.028;2022-10-16T06:41:05;11.84;63.15
75471;HTU21D;64051;46.320;48.028;2022-10-16T06:43:34;11.99;62.89
75471;HTU21D;64051;46.320;48.028;2022-10-16T06:46:01;12.12;62.63
75471;HTU21D;64051;46.320;48.028;2022-10-16T06:48:34;12.21;62.26
75471;HTU21D;64051;46.320;48.028;2022-10-16T06:51:23;12.32;61.71
75471;HTU21D;64051;46.320;48.028;2022-10-16T06:53:51;12.40;61.73
75471;HTU21D;64051;46.320;48.028;2022-10-16T06:56:22;12.49;61.55
75471;HTU21D;64051;46.320;48.028;2022-10-16T06:58:49;12.63;61.59
75471;HTU21D;64051;46.320;48.028;2022-10-16T07:01:17;12.81;61.12
75471;HTU21D;64051;46.320;48.028;2022-10-16T07:03:46;12.88;60.46
75471;HTU21D;64051;46.320;48.028;2022-10-16T07:06:14;12.90;60.06
75471;HTU21D;64051;46.320;48.028;2022-10-16T07:08:52;12.95;60.01
75471;HTU21D;64051;46.320;48.028;2022-10-16T07:11:21;13.05;59.80
75471;HTU21D;64051;46.320;48.028;2022-10-16T07:13:50;13.12;58.93
75471;HTU21D;64051;46.320;48.028;2022-10-16T07:16:19;13.18;58.52
75471;HTU21D;64051;46.320;48.028;2022-10-16T07:18:49;13.24;58.20
75471;HTU21D;64051;46.320;48.028;2022-10-16T07:21:21;13.31;58.04
75471;HTU21D;64051;46.320;48.028;2022-10-16T07:24:11;13.45;56.54
75471;HTU21D;64051;46.320;48.028;2022-10-16T07:26:39;13.52;57.44
75471;HTU21D;64051;46.320;48.028;2022-10-16T07:29:21;13.60;57.36
75471;HTU21D;64051;46.320;48.028;2022-10-16T07:31:50;13.70;57.35
75471;HTU21D;64051;46.320;48.028;2022-10-16T07:34:25;13.82;57.06
75471;HTU21D;64051;46.320;48.028;2022-10-16T07:36:52;13.94;57.00
75471;HTU21D;64051;46.320;48.028;2022-10-16T07:39:18;14.05;56.56
75471;HTU21D;64051;46.320;48.028;2022-10-16T07:41:47;14.08;55.94
75471;HTU21D;64051;46.320;48.028;2022-10-16T07:44:16;14.08;55.62
75471;HTU21D;64051;46.320;48.028;2022-10-16T07:46:41;14.09;55.45
75471;HTU21D;64051;46.320;48.028;2022-10-16T07:49:08;14.10;54.91
75471;HTU21D;64051;46.320;48.028;2022-10-16T07:51:34;14.11;54.22
75471;HTU21D;64051;46.320;48.028;2022-10-16T07:54:08;14.07;52.99
75471;HTU21D;64051;46.320;48.028;2022-10-16T07:56:51;14.05;53.71
75471;HTU21D;64051;46.320;48.028;2022-10-16T07:59:16;14.04;53.62
75471;HTU21D;64051;46.320;48.028;2022-10-16T08:01:45;14.11;53.66
75471;HTU21D;64051;46.320;48.028;2022-10-16T08:04:20;14.21;53.54
75471;HTU21D;64051;46.320;48.028;2022-10-16T08:06:48;14.29;53.10
75471;HTU21D;64051;46.320;48.028;2022-10-16T08:09:14;14.33;52.77
75471;HTU21D;64051;46.320;48.028;2022-10-16T08:11:43;14.38;52.50
75471;HTU21D;64051;46.320;48.028;2022-10-16T08:14:09;14.40;52.55
75471;HTU21D;64051;46.320;48.028;2022-10-16T08:16:35;14.45;52.14
75471;HTU21D;64051;46.320;48.028;2022-10-16T08:19:04;14.49;51.14
75471;HTU21D;64051;46.320;48.028;2022-10-16T08:21:30;14.44;50.79
75471;HTU21D;64051;46.320;48.028;2022-10-16T08:23:56;14.43;50.70
75471;HTU21D;64051;46.320;48.028;2022-10-16T08:26:22;14.45;50.50
75471;HTU21D;64051;46.320;48.028;2022-10-16T08:28:51;14.52;50.47
75471;HTU21D;64051;46.320;48.028;2022-10-16T08:31:29;14.63;50.12
75471;HTU21D;64051;46.320;48.028;2022-10-16T08:33:58;14.70;50.22
75471;HTU21D;64051;46.320;48.028;2022-10-16T08:36:24;14.79;50.06
75471;HTU21D;64051;46.320;48.028;2022-10-16T08:38:50;14.86;50.02
75471;HTU21D;64051;46.320;48.028;2022-10-16T08:46:56;15.18;48.07
75471;HTU21D;64051;46.320;48.028;2022-10-16T08:49:29;15.16;48.47
75471;HTU21D;64051;46.320;48.028;2022-10-16T08:51:56;15.19;48.31
75471;HTU21D;64051;46.320;48.028;2022-10-16T08:54:29;15.27;48.44
75471;HTU21D;64051;46.320;48.028;2022-10-16T08:56:57;15.39;48.05
75471;HTU21D;64051;46.320;48.028;2022-10-16T08:59:26;15.40;47.51
75471;HTU21D;64051;46.320;48.028;2022-10-16T09:01:52;15.40;47.09
75471;HTU21D;64051;46.320;48.028;2022-10-16T09:10:15;15.56;47.27
75471;HTU21D;64051;46.320;48.028;2022-10-16T09:18:58;15.74;45.16
75471;HTU21D;64051;46.320;48.028;2022-10-16T09:21:30;15.75;45.78
75471;HTU21D;64051;46.320;48.028;2022-10-16T09:24:21;15.75;45.34
75471;HTU21D;64051;46.320;48.028;2022-10-16T09:26:50;15.72;45.95
75471;HTU21D;64051;46.320;48.028;2022-10-16T09:29:18;15.70;45.66
75471;HTU21D;64051;46.320;48.028;2022-10-16T09:31:49;15.71;45.74
75471;HTU21D;64051;46.320;48.028;2022-10-16T09:34:26;15.80;45.50
75471;HTU21D;64051;46.320;48.028;2022-10-16T09:36:53;15.85;45.50
75471;HTU21D;64051;46.320;48.028;2022-10-16T09:39:28;15.91;44.66
75471;HTU21D;64051;46.320;48.028;2022-10-16T09:42:00;15.97;45.17
75471;HTU21D;64051;46.320;48.028;2022-10-16T09:44:30;16.01;45.15
75471;HTU21D;64051;46.320;48.028;2022-10-16T09:47:04;16.10;45.21
75471;HTU21D;64051;46.320;48.028;2022-10-16T09:50:00;16.16;43.64
75471;HTU21D;64051;46.320;48.028;2022-10-16T09:56:25;16.08;39.71
75471;HTU21D;64051;46.320;48.028;2022-10-16T09:58:52;16.03;44.11
75471;HTU21D;64051;46.320;48.028;2022-10-16T10:01:19;16.01;44.03
75471;HTU21D;64051;46.320;48.028;2022-10-16T10:03:45;16.03;43.92
75471;HTU21D;64051;46.320;48.028;2022-10-16T10:06:52;16.00;42.49
75471;HTU21D;64051;46.320;48.028;2022-10-16T10:09:36;15.96;43.57
75471;HTU21D;64051;46.320;48.028;2022-10-16T10:12:05;15.99;43.31
75471;HTU21D;64051;46.320;48.028;2022-10-16T10:14:32;16.00;43.62
75471;HTU21D;64051;46.320;48.028;2022-10-16T10:19:47;16.04;42.63
75471;HTU21D;64051;46.320;48.028;2022-10-16T10:22:18;16.08;43.20
75471;HTU21D;64051;46.320;48.028;2022-10-16T10:25:46;16.17;40.20
75471;HTU21D;64051;46.320;48.028;2022-10-16T10:30:25;16.29;43.08
75471;HTU21D;64051;46.320;48.028;2022-10-16T10:33:37;16.35;42.32
75471;HTU21D;64051;46.320;48.028;2022-10-16T10:36:40;16.33;42.30
75471;HTU21D;64051;46.320;48.028;2022-10-16T10:50:20;16.18;39.13
75471;HTU21D;64051;46.320;48.028;2022-10-16T10:53:08;16.14;41.29
75471;HTU21D;64051;46.320;48.028;2022-10-16T11:04:38;16.15;41.29
75471;HTU21D;64051;46.320;48.028;2022-10-16T11:07:17;16.14;41.81
75471;HTU21D;64051;46.320;48.028;2022-10-16T11:09:59;16.19;41.61
75471;HTU21D;64051;46.320;48.028;2022-10-16T11:12:30;16.16;41.29
75471;HTU21D;64051;46.320;48.028;2022-10-16T11:15:07;16.12;41.26
75471;HTU21D;64051;46.320;48.028;2022-10-16T11:17:46;16.10;41.32
75471;HTU21D;64051;46.320;48.028;2022-10-16T11:20:34;16.12;39.98
75471;HTU21D;64051;46.320;48.028;2022-10-16T11:23:07;16.14;41.42
75471;HTU21D;64051;46.320;48.028;2022-10-16T11:25:40;16.13;41.81
75471;HTU21D;64051;46.320;48.028;2022-10-16T11:28:25;16.19;41.54
75471;HTU21D;64051;46.320;48.028;2022-10-16T11:31:03;16.19;41.81
75471;HTU21D;64051;46.320;48.028;2022-10-16T11:33:41;16.18;41.57
75471;HTU21D;64051;46.320;48.028;2022-10-16T11:36:16;16.22;41.25
75471;HTU21D;64051;46.320;48.028;2022-10-16T11:44:36;16.19;41.33
75471;HTU21D;64051;46.320;48.028;2022-10-16T11:49:47;16.04;41.29
75471;HTU21D;64051;46.320;48.028;2022-10-16T11:52:36;15.99;40.95
75471;HTU21D;64051;46.320;48.028;2022-10-16T11:55:31;16.00;40.99
75471;HTU21D;64051;46.320;48.028;2022-10-16T12:04:15;15.91;40.74
75471;HTU21D;64051;46.320;48.028;2022-10-16T12:06:47;15.87;41.95
75471;HTU21D;64051;46.320;48.028;2022-10-16T12:09:29;15.91;41.70
75471;HTU21D;64051;46.320;48.028;2022-10-16T12:11:57;15.93;42.12
75471;HTU21D;64051;46.320;48.028;2022-10-16T12:17:23;15.97;40.92
75471;HTU21D;64051;46.320;48.028;2022-10-16T12:20:20;15.89;40.87
75471;HTU21D;64051;46.320;48.028;2022-10-16T12:22:53;15.87;41.49
75471;HTU21D;64051;46.320;48.028;2022-10-16T12:25:31;15.82;41.10
75471;HTU21D;64051;46.320;48.028;2022-10-16T12:28:00;15.78;41.61
75471;HTU21D;64051;46.320;48.028;2022-10-16T12:30:35;15.74;41.00
75471;HTU21D;64051;46.320;48.028;2022-10-16T12:33:06;15.67;40.96
75471;HTU21D;64051;46.320;48.028;2022-10-16T12:35:45;15.54;40.98
75471;HTU21D;64051;46.320;48.028;2022-10-16T12:38:44;15.44;40.35
75471;HTU21D;64051;46.320;48.028;2022-10-16T12:41:11;15.37;41.04
75471;HTU21D;64051;46.320;48.028;2022-10-16T12:43:46;15.29;41.16
75471;HTU21D;64051;46.320;48.028;2022-10-16T12:48:40;15.21;41.38
75471;HTU21D;64051;46.320;48.028;2022-10-16T12:54:18;15.13;40.15
75471;HTU21D;64051;46.320;48.028;2022-10-16T12:57:25;15.07;40.26
75471;HTU21D;64051;46.320;48.028;2022-10-16T13:03:30;14.87;41.08
75471;HTU21D;64051;46.320;48.028;2022-10-16T13:09:10;14.75;41.55
75471;HTU21D;64051;46.320;48.028;2022-10-16T13:28:08;14.36;42.26
75471;HTU21D;64051;46.320;48.028;2022-10-16T13:30:39;14.28;42.23
75471;HTU21D;64051;46.320;48.028;2022-10-16T13:35:56;14.13;42.36
75471;HTU21D;64051;46.320;48.028;2022-10-16T13:38:31;14.07;42.30
75471;HTU21D;64051;46.320;48.028;2022-10-16T13:41:03;14.00;42.40
75471;HTU21D;64051;46.320;48.028;2022-10-16T13:43:36;13.93;42.34
75471;HTU21D;64051;46.320;48.028;2022-10-16T13:46:15;13.84;42.54
75471;HTU21D;64051;46.320;48.028;2022-10-16T13:49:00;13.77;42.70
75471;HTU21D;64051;46.320;48.028;2022-10-16T13:51:32;13.68;43.16
75471;HTU21D;64051;46.320;48.028;2022-10-16T13:54:04;13.64;43.28
75471;HTU21D;64051;46.320;48.028;2022-10-16T13:56:33;13.58;43.53
75471;HTU21D;64051;46.320;48.028;2022-10-16T13:59:06;13.49;43.47
75471;HTU21D;64051;46.320;48.028;2022-10-16T14:01:52;13.41;43.65
75471;HTU21D;64051;46.320;48.028;2022-10-16T14:04:23;13.36;43.84
75471;HTU21D;64051;46.320;48.028;2022-10-16T14:06:50;13.32;43.91
75471;HTU21D;64051;46.320;48.028;2022-10-16T14:11:57;13.20;43.97
75471;HTU21D;64051;46.320;48.028;2022-10-16T14:14:24;13.10;44.19
75471;HTU21D;64051;46.320;48.028;2022-10-16T14:16:56;13.04;44.35
75471;HTU21D;64051;46.320;48.028;2022-10-16T14:19:25;12.97;44.47
75471;HTU21D;64051;46.320;48.028;2022-10-16T14:21:58;12.88;44.57
75471;HTU21D;64051;46.320;48.028;2022-10-16T14:24:35;12.81;44.62
75471;HTU21D;64051;46.320;48.028;2022-10-16T14:30:18;12.67;44.66
75471;HTU21D;64051;46.320;48.028;2022-10-16T14:33:00;12.64;45.05
75471;HTU21D;64051;46.320;48.028;2022-10-16T14:35:40;12.61;45.21
75471;HTU21D;64051;46.320;48.028;2022-10-16T14:38:19;12.55;45.27
75471;HTU21D;64051;46.320;48.028;2022-10-16T14:40:47;12.50;45.49
75471;HTU21D;64051;46.320;48.028;2022-10-16T14:43:30;12.45;45.54
75471;HTU21D;64051;46.320;48.028;2022-10-16T14:46:02;12.43;45.67
75471;HTU21D;64051;46.320;48.028;2022-10-16T14:48:32;12.40;45.77
75471;HTU21D;64051;46.320;48.028;2022-10-16T14:50:58;12.33;45.85
75471;HTU21D;64051;46.320;48.028;2022-10-16T14:53:24;12.30;45.96
75471;HTU21D;64051;46.320;48.028;2022-10-16T14:55:50;12.25;46.05
75471;HTU21D;64051;46.320;48.028;2022-10-16T14:58:22;12.20;46.14
75471;HTU21D;64051;46.320;48.028;2022-10-16T15:00:52;12.15;46.27
75471;HTU21D;64051;46.320;48.028;2022-10-16T15:03:18;12.10;46.39
75471;HTU21D;64051;46.320;48.028;2022-10-16T15:06:02;12.05;46.52
75471;HTU21D;64051;46.320;48.028;2022-10-16T15:08:28;12.00;46.67
75471;HTU21D;64051;46.320;48.028;2022-10-16T15:10:54;11.94;46.78
75471;HTU21D;64051;46.320;48.028;2022-10-16T15:13:26;11.89;46.91
75471;HTU21D;64051;46.320;48.028;2022-10-16T15:15:53;11.84;47.03
75471;HTU21D;64051;46.320;48.028;2022-10-16T15:18:24;11.83;47.20
75471;HTU21D;64051;46.320;48.028;2022-10-16T15:20:51;11.79;47.28
75471;HTU21D;64051;46.320;48.028;2022-10-16T15:23:23;11.76;47.32
75471;HTU21D;64051;46.320;48.028;2022-10-16T15:25:57;11.71;47.57
75471;HTU21D;64051;46.320;48.028;2022-10-16T15:28:26;11.69;47.70
75471;HTU21D;64051;46.320;48.028;2022-10-16T15:30:57;11.70;47.97
75471;HTU21D;64051;46.320;48.028;2022-10-16T15:33:36;11.70;47.93
75471;HTU21D;64051;46.320;48.028;2022-10-16T15:36:02;11.71;47.99
75471;HTU21D;64051;46.320;48.028;2022-10-16T15:38:35;11.75;48.01
75471;HTU21D;64051;46.320;48.028;2022-10-16T15:41:04;11.76;47.99
75471;HTU21D;64051;46.320;48.028;2022-10-16T15:43:39;11.77;47.93
75471;HTU21D;64051;46.320;48.028;2022-10-16T15:46:11;11.76;47.90
75471;HTU21D;64051;46.320;48.028;2022-10-16T15:48:50;11.76;47.76
75471;HTU21D;64051;46.320;48.028;2022-10-16T15:51:26;11.74;47.79
75471;HTU21D;64051;46.320;48.028;2022-10-16T15:54:23;11.72;47.79
75471;HTU21D;64051;46.320;48.028;2022-10-16T15:57:02;11.68;47.90
75471;HTU21D;64051;46.320;48.028;2022-10-16T15:59:37;11.67;47.88
75471;HTU21D;64051;46.320;48.028;2022-10-16T16:02:03;11.64;47.89
75471;HTU21D;64051;46.320;48.028;2022-10-16T16:04:32;11.63;47.92
75471;HTU21D;64051;46.320;48.028;2022-10-16T16:07:01;11.59;47.92
75471;HTU21D;64051;46.320;48.028;2022-10-16T16:09:30;11.58;47.89
75471;HTU21D;64051;46.320;48.028;2022-10-16T16:12:14;11.55;47.51
75471;HTU21D;64051;46.320;48.028;2022-10-16T16:14:40;11.52;48.01
75471;HTU21D;64051;46.320;48.028;2022-10-16T16:17:18;11.51;48.03
75471;HTU21D;64051;46.320;48.028;2022-10-16T16:19:53;11.41;48.15
75471;HTU21D;64051;46.320;48.028;2022-10-16T16:22:24;11.26;48.41
75471;HTU21D;64051;46.320;48.028;2022-10-16T16:25:02;11.08;48.75
75471;HTU21D;64051;46.320;48.028;2022-10-16T16:27:35;10.90;49.01
75471;HTU21D;64051;46.320;48.028;2022-10-16T16:30:06;10.74;49.31
75471;HTU21D;64051;46.320;48.028;2022-10-16T16:32:38;10.58;49.61
75471;HTU21D;64051;46.320;48.028;2022-10-16T16:35:10;10.41;49.88
75471;HTU21D;64051;46.320;48.028;2022-10-16T16:37:42;10.28;50.14
75471;HTU21D;64051;46.320;48.028;2022-10-16T16:40:08;10.15;50.35
75471;HTU21D;64051;46.320;48.028;2022-10-16T16:42:42;10.05;50.52
75471;HTU21D;64051;46.320;48.028;2022-10-16T16:45:27;9.95;50.72
75471;HTU21D;64051;46.320;48.028;2022-10-16T16:48:01;9.88;50.97
75471;HTU21D;64051;46.320;48.028;2022-10-16T16:50:28;9.81;51.11
75471;HTU21D;64051;46.320;48.028;2022-10-16T16:53:00;9.78;51.30
75471;HTU21D;64051;46.320;48.028;2022-10-16T16:55:38;9.72;51.39
75471;HTU21D;64051;46.320;48.028;2022-10-16T16:58:16;9.68;51.48
75471;HTU21D;64051;46.320;48.028;2022-10-16T17:00:51;9.65;51.59
75471;HTU21D;64051;46.320;48.028;2022-10-16T17:03:17;9.60;51.65
75471;HTU21D;64051;46.320;48.028;2022-10-16T17:06:07;9.55;51.85
75471;HTU21D;64051;46.320;48.028;2022-10-16T17:08:42;9.48;51.82
75471;HTU21D;64051;46.320;48.028;2022-10-16T17:11:30;9.42;52.14
75471;HTU21D;64051;46.320;48.028;2022-10-16T17:14:05;9.36;52.20
75471;HTU21D;64051;46.320;48.028;2022-10-16T17:16:38;9.31;52.33
75471;HTU21D;64051;46.320;48.028;2022-10-16T17:19:18;9.24;52.60
75471;HTU21D;64051;46.320;48.028;2022-10-16T17:21:49;9.18;52.70
75471;HTU21D;64051;46.320;48.028;2022-10-16T17:24:15;9.10;52.89
75471;HTU21D;64051;46.320;48.028;2022-10-16T17:26:47;9.06;53.07
75471;HTU21D;64051;46.320;48.028;2022-10-16T17:29:18;9.02;53.26
75471;HTU21D;64051;46.320;48.028;2022-10-16T17:31:44;8.95;53.42
75471;HTU21D;64051;46.320;48.028;2022-10-16T17:34:13;8.91;53.51